createdAt,value
2019-01-09T00:01:12.011Z,23.10
2019-01-09T00:03:41.433Z,23.20
2019-01-09T00:06:10.630Z,17.87
2019-01-09T00:08:40.425Z,17.10
2019-01-09T00:11:09.678Z,14.27
2019-01-09T00:13:38.880Z,17.97
2019-01-09T00:16:09.090Z,18.50
2019-01-09T00:18:38.564Z,28.83
2019-01-09T00:21:07.806Z,22.00
2019-01-09T00:23:37.028Z,18.43
2019-01-09T00:26:06.941Z,29.07
2019-01-09T00:28:36.121Z,17.23
2019-01-09T00:31:05.282Z,18.30
2019-01-09T00:33:34.610Z,16.47
2019-01-09T00:36:03.839Z,12.80
2019-01-09T00:38:33.005Z,20.10
2019-01-09T00:41:02.295Z,15.07
2019-01-09T00:43:31.509Z,13.33
2019-01-09T00:46:02.843Z,14.70
2019-01-09T00:48:32.278Z,13.57
2019-01-09T00:51:02.129Z,12.40
2019-01-09T00:53:31.339Z,12.27
2019-01-09T00:56:00.817Z,12.63
2019-01-09T00:58:30.090Z,18.20
2019-01-09T01:00:59.239Z,14.40
2019-01-09T01:04:12.343Z,18.67
2019-01-09T01:07:33.700Z,13.80
2019-01-09T01:10:55.350Z,13.47
2019-01-09T01:13:58.384Z,17.77
2019-01-09T01:16:58.812Z,20.27
2019-01-09T01:19:50.875Z,19.43
2019-01-09T01:23:04.476Z,22.17
2019-01-09T01:25:49.779Z,22.33
2019-01-09T01:28:59.309Z,28.43
2019-01-09T01:32:30.711Z,25.33
2019-01-09T01:35:31.059Z,23.07
2019-01-09T01:38:30.264Z,25.07
2019-01-09T01:41:22.402Z,28.10
2019-01-09T01:44:17.799Z,27.00
2019-01-09T01:47:17.966Z,20.03
2019-01-09T01:50:01.675Z,20.67
2019-01-09T01:53:09.297Z,23.97
2019-01-09T01:56:12.405Z,26.17
2019-01-09T01:59:15.033Z,13.17
2019-01-09T02:02:13.736Z,25.67
2019-01-09T02:05:15.959Z,21.30
2019-01-09T02:07:59.655Z,17.00
2019-01-09T02:11:27.540Z,19.73
2019-01-09T02:14:39.233Z,33.73
2019-01-09T02:17:45.332Z,24.40
2019-01-09T02:20:59.146Z,29.27
2019-01-09T02:23:49.976Z,26.17
2019-01-09T02:26:44.160Z,30.67
2019-01-09T02:29:51.825Z,29.53
2019-01-09T02:32:34.653Z,24.70
2019-01-09T02:35:03.944Z,22.73
2019-01-09T02:37:33.701Z,25.07
2019-01-09T02:40:03.020Z,15.70
2019-01-09T02:42:32.335Z,15.50
2019-01-09T02:45:01.563Z,11.47
2019-01-09T02:47:30.787Z,12.57
2019-01-09T02:50:00.296Z,7.90
2019-01-09T02:52:29.478Z,7.87
2019-01-09T02:54:58.752Z,8.40
2019-01-09T02:57:27.991Z,7.43
2019-01-09T02:59:57.497Z,7.73
2019-01-09T03:02:26.734Z,12.43
2019-01-09T03:04:56.059Z,8.57
2019-01-09T03:07:25.254Z,14.93
2019-01-09T03:09:54.800Z,21.47
2019-01-09T03:12:23.939Z,17.37
2019-01-09T03:14:53.125Z,18.70
2019-01-09T03:17:22.684Z,19.83
2019-01-09T03:19:51.915Z,11.13
2019-01-09T03:22:21.151Z,16.73
2019-01-09T03:24:50.420Z,10.97
2019-01-09T03:27:19.575Z,15.07
2019-01-09T03:29:49.139Z,18.87
2019-01-09T03:32:18.317Z,19.63
2019-01-09T03:34:47.553Z,14.23
2019-01-09T03:37:16.983Z,13.23
2019-01-09T03:39:46.481Z,22.60
2019-01-09T03:42:16.289Z,15.10
2019-01-09T03:44:45.526Z,18.00
2019-01-09T03:47:15.044Z,13.30
2019-01-09T03:49:44.514Z,15.60
2019-01-09T03:52:13.669Z,13.33
2019-01-09T03:54:43.164Z,16.40
2019-01-09T03:57:12.398Z,11.60
2019-01-09T03:59:41.532Z,8.90
2019-01-09T04:02:11.044Z,9.87
2019-01-09T04:04:40.191Z,17.10
2019-01-09T04:07:10.097Z,23.07
2019-01-09T04:09:39.248Z,15.73
2019-01-09T04:12:08.710Z,17.70
2019-01-09T04:14:37.853Z,8.70
2019-01-09T04:17:07.052Z,17.97
2019-01-09T04:19:36.300Z,15.23
2019-01-09T04:22:05.441Z,13.73
2019-01-09T04:24:34.617Z,17.23
2019-01-09T04:27:04.073Z,19.77
2019-01-09T04:29:33.589Z,15.37
2019-01-09T04:32:03.325Z,22.67
2019-01-09T04:34:32.472Z,16.37
2019-01-09T04:37:01.694Z,16.07
2019-01-09T04:39:30.988Z,6.27
2019-01-09T04:42:00.553Z,10.67
2019-01-09T04:44:30.063Z,7.40
2019-01-09T04:46:59.710Z,7.77
2019-01-09T04:49:28.930Z,11.53
2019-01-09T04:51:58.482Z,11.40
2019-01-09T04:54:28.264Z,12.57
2019-01-09T04:56:57.826Z,10.53
2019-01-09T04:59:27.049Z,21.47
2019-01-09T05:01:56.197Z,10.17
2019-01-09T05:04:26.615Z,10.30
2019-01-09T05:07:00.591Z,8.50
2019-01-09T05:09:28.714Z,10.80
2019-01-09T05:11:57.904Z,14.13
2019-01-09T05:14:27.058Z,16.03
2019-01-09T05:16:56.407Z,11.63
2019-01-09T05:19:25.571Z,12.20
2019-01-09T05:21:55.111Z,21.67
2019-01-09T05:24:24.269Z,15.10
2019-01-09T05:26:53.418Z,17.20
2019-01-09T05:29:22.907Z,16.47
2019-01-09T05:31:52.043Z,21.97
2019-01-09T05:34:21.301Z,22.17
2019-01-09T05:36:50.574Z,20.30
2019-01-09T05:39:19.901Z,11.97
2019-01-09T05:41:49.149Z,24.43
2019-01-09T05:44:18.435Z,13.13
2019-01-09T05:46:48.058Z,16.17
2019-01-09T05:49:17.940Z,9.90
2019-01-09T05:51:47.080Z,13.77
2019-01-09T05:54:16.245Z,14.50
2019-01-09T05:56:45.433Z,10.37
2019-01-09T05:59:14.717Z,15.80
2019-01-09T06:01:43.980Z,14.70
2019-01-09T06:04:13.187Z,13.40
2019-01-09T06:06:42.348Z,20.67
2019-01-09T06:09:11.528Z,20.33
2019-01-09T06:11:40.684Z,14.60
2019-01-09T06:14:09.953Z,18.93
2019-01-09T06:16:41.902Z,15.30
2019-01-09T06:19:11.484Z,19.37
2019-01-09T06:21:40.642Z,21.53
2019-01-09T06:24:09.776Z,25.57
2019-01-09T06:26:39.384Z,21.77
2019-01-09T06:29:08.553Z,30.77
2019-01-09T06:31:38.138Z,23.20
2019-01-09T06:34:07.296Z,23.73
2019-01-09T06:36:36.829Z,25.53
2019-01-09T06:39:07.327Z,29.07
2019-01-09T06:41:36.821Z,28.17
2019-01-09T06:44:06.273Z,38.70
2019-01-09T06:46:35.440Z,25.90
2019-01-09T06:49:04.953Z,15.53
2019-01-09T06:51:34.197Z,16.67
2019-01-09T06:54:03.600Z,17.27
2019-01-09T06:56:32.807Z,17.20
2019-01-09T06:59:02.014Z,19.17
2019-01-09T07:01:31.236Z,17.83
2019-01-09T07:04:00.453Z,17.20
2019-01-09T07:06:29.794Z,18.20
2019-01-09T07:08:59.363Z,20.67
2019-01-09T07:11:29.277Z,26.93
2019-01-09T07:13:58.425Z,27.30
2019-01-09T07:16:27.564Z,21.93
2019-01-09T07:18:57.237Z,21.30
2019-01-09T07:21:26.482Z,22.30
2019-01-09T07:23:56.659Z,23.27
2019-01-09T07:26:25.866Z,21.23
2019-01-09T07:28:55.757Z,27.03
2019-01-09T07:31:24.912Z,23.43
2019-01-09T07:33:54.360Z,27.63
2019-01-09T07:36:23.536Z,19.07
2019-01-09T07:38:52.955Z,25.33
2019-01-09T07:41:22.134Z,24.10
2019-01-09T07:43:51.270Z,22.50
2019-01-09T07:46:20.481Z,20.37
2019-01-09T07:48:49.985Z,27.40
2019-01-09T07:51:19.512Z,18.83
2019-01-09T07:53:48.774Z,20.03
2019-01-09T07:56:17.922Z,19.40
2019-01-09T07:58:47.085Z,16.80
2019-01-09T08:01:16.233Z,26.70
2019-01-09T08:03:45.378Z,17.00
2019-01-09T08:06:14.603Z,13.77
2019-01-09T08:08:43.856Z,23.53
2019-01-09T08:11:13.426Z,16.30
2019-01-09T08:13:42.612Z,25.37
2019-01-09T08:16:12.158Z,19.33
2019-01-09T08:18:41.499Z,12.10
2019-01-09T08:21:10.795Z,20.00
2019-01-09T08:23:40.008Z,14.73
2019-01-09T08:26:09.417Z,14.80
2019-01-09T08:28:38.633Z,19.03
2019-01-09T08:31:07.881Z,21.13
2019-01-09T08:33:37.206Z,24.20
2019-01-09T08:36:06.518Z,21.47
2019-01-09T08:38:35.669Z,23.70
2019-01-09T08:41:04.968Z,18.17
2019-01-09T08:43:34.207Z,20.20
2019-01-09T08:46:03.705Z,19.60
2019-01-09T08:48:32.925Z,23.57
2019-01-09T08:51:02.092Z,26.47
2019-01-09T08:53:31.660Z,22.30
2019-01-09T08:56:01.140Z,26.77
2019-01-09T08:58:30.677Z,26.60
2019-01-09T09:01:00.145Z,26.60
2019-01-09T09:03:29.672Z,25.70
2019-01-09T09:05:59.187Z,25.37
2019-01-09T09:08:29.758Z,30.83
2019-01-09T09:10:58.943Z,28.77
2019-01-09T09:13:38.844Z,24.93
2019-01-09T09:16:09.727Z,34.03
2019-01-09T09:18:38.946Z,19.67
2019-01-09T09:21:08.213Z,20.43
2019-01-09T09:23:37.609Z,9.80
2019-01-09T09:26:07.180Z,16.03
2019-01-09T09:28:36.662Z,13.30
2019-01-09T09:31:05.952Z,16.70
2019-01-09T09:33:35.100Z,13.93
2019-01-09T09:36:04.771Z,17.43
2019-01-09T09:38:33.949Z,14.50
2019-01-09T09:41:03.189Z,10.87
2019-01-09T09:43:32.997Z,15.23
2019-01-09T09:46:02.279Z,17.47
2019-01-09T09:48:31.782Z,13.33
2019-01-09T09:51:01.017Z,23.53
2019-01-09T09:53:30.542Z,17.00
2019-01-09T09:55:59.667Z,15.10
2019-01-09T09:58:29.209Z,24.83
2019-01-09T10:00:58.490Z,13.50
2019-01-09T10:03:27.654Z,18.23
2019-01-09T10:05:56.798Z,20.33
2019-01-09T10:08:29.576Z,26.07
2019-01-09T10:10:56.877Z,16.77
2019-01-09T10:13:26.409Z,15.67
2019-01-09T10:15:55.647Z,20.87
2019-01-09T10:18:24.933Z,23.10
2019-01-09T10:20:54.433Z,21.07
2019-01-09T10:23:24.085Z,27.23
2019-01-09T10:25:53.242Z,22.70
2019-01-09T10:28:22.695Z,26.67
2019-01-09T10:30:51.940Z,33.17
2019-01-09T10:33:21.128Z,22.20
2019-01-09T10:35:50.748Z,20.17
2019-01-09T10:38:20.222Z,25.70
2019-01-09T10:40:49.718Z,28.30
2019-01-09T10:43:18.864Z,28.77
2019-01-09T10:45:48.327Z,18.33
2019-01-09T10:48:17.504Z,18.40
2019-01-09T10:50:46.657Z,15.40
2019-01-09T10:53:15.830Z,30.00
2019-01-09T10:55:45.029Z,21.47
2019-01-09T10:58:14.506Z,18.60
2019-01-09T11:00:44.077Z,19.87
2019-01-09T11:03:13.614Z,14.43
2019-01-09T11:05:42.758Z,21.20
2019-01-09T11:08:12.044Z,16.53
2019-01-09T11:10:41.519Z,17.03
2019-01-09T11:13:11.026Z,16.83
2019-01-09T11:15:40.196Z,24.27
2019-01-09T11:18:09.384Z,21.60
2019-01-09T11:20:38.905Z,19.67
2019-01-09T11:23:08.832Z,25.83
2019-01-09T11:25:37.980Z,12.03
2019-01-09T11:28:07.277Z,13.27
2019-01-09T11:30:37.271Z,7.13
2019-01-09T11:33:06.514Z,9.17
2019-01-09T11:35:35.668Z,8.77
2019-01-09T11:38:04.825Z,7.13
2019-01-09T11:40:34.057Z,8.83
2019-01-09T11:43:03.796Z,7.73
2019-01-09T11:45:33.548Z,8.30
2019-01-09T11:48:03.052Z,6.90
2019-01-09T11:50:32.201Z,9.03
2019-01-09T11:53:01.643Z,7.37
2019-01-09T11:55:30.877Z,9.93
2019-01-09T11:58:00.114Z,15.47
2019-01-09T12:00:30.128Z,8.47
2019-01-09T12:02:59.319Z,9.53
2019-01-09T12:05:28.863Z,10.70
2019-01-09T12:07:59.676Z,8.33
2019-01-09T12:10:30.114Z,13.17
2019-01-09T12:12:59.713Z,10.00
2019-01-09T12:15:28.957Z,12.87
2019-01-09T12:17:58.440Z,14.73
2019-01-09T12:20:27.639Z,12.17
2019-01-09T12:22:56.875Z,12.90
2019-01-09T12:25:26.504Z,10.53
2019-01-09T12:27:55.729Z,15.97
2019-01-09T12:30:27.382Z,13.93
2019-01-09T12:32:56.589Z,15.17
2019-01-09T12:35:26.145Z,19.17
2019-01-09T12:37:55.301Z,15.87
2019-01-09T12:40:24.770Z,17.13
2019-01-09T12:42:54.265Z,22.70
2019-01-09T12:45:24.053Z,16.50
2019-01-09T12:47:53.198Z,12.57
2019-01-09T12:50:24.994Z,21.27
2019-01-09T12:52:54.547Z,22.60
2019-01-09T12:55:24.469Z,22.70
2019-01-09T12:57:53.741Z,29.63
2019-01-09T13:00:25.528Z,25.30
2019-01-09T13:02:54.718Z,18.63
2019-01-09T13:05:24.318Z,17.83
2019-01-09T13:07:53.840Z,22.67
2019-01-09T13:10:23.647Z,15.20
2019-01-09T13:12:53.027Z,17.73
2019-01-09T13:15:22.324Z,23.13
2019-01-09T13:17:51.838Z,12.37
2019-01-09T13:20:21.012Z,17.23
2019-01-09T13:22:50.528Z,13.83
2019-01-09T13:25:19.797Z,15.13
2019-01-09T13:27:49.330Z,14.53
2019-01-09T13:30:20.800Z,17.80
2019-01-09T13:32:50.013Z,17.80
2019-01-09T13:35:19.277Z,12.60
2019-01-09T13:37:48.548Z,18.70
2019-01-09T13:40:19.193Z,16.63
2019-01-09T13:42:49.263Z,16.90
2019-01-09T13:45:20.615Z,22.27
2019-01-09T13:47:50.499Z,14.57
2019-01-09T13:50:20.484Z,13.83
2019-01-09T13:52:50.004Z,11.63
2019-01-09T13:55:19.605Z,13.63
2019-01-09T13:57:48.822Z,13.67
2019-01-09T14:00:19.991Z,22.47
2019-01-09T14:02:49.378Z,15.83
2019-01-09T14:05:18.950Z,17.97
2019-01-09T14:07:48.402Z,20.50
2019-01-09T14:10:19.957Z,29.70
2019-01-09T14:12:49.305Z,23.33
2019-01-09T14:15:19.690Z,26.20
2019-01-09T14:17:49.244Z,19.67
2019-01-09T14:20:18.413Z,23.00
2019-01-09T14:22:47.677Z,20.60
2019-01-09T14:25:17.200Z,26.47
2019-01-09T14:27:47.245Z,22.87
2019-01-09T14:30:24.709Z,21.67
2019-01-09T14:32:53.904Z,21.00
2019-01-09T14:35:24.326Z,22.70
2019-01-09T14:37:53.502Z,20.80
2019-01-09T14:40:22.729Z,17.87
2019-01-09T14:42:52.278Z,20.57
2019-01-09T14:45:21.929Z,23.77
2019-01-09T14:47:51.269Z,25.10
2019-01-09T14:50:22.380Z,22.13
2019-01-09T14:52:51.553Z,24.03
2019-01-09T14:55:20.837Z,22.93
2019-01-09T14:57:50.269Z,28.53
2019-01-09T15:00:24.264Z,24.73
2019-01-09T15:02:53.821Z,25.70
2019-01-09T15:05:23.515Z,22.07
2019-01-09T15:07:52.777Z,26.10
2019-01-09T15:10:31.519Z,29.23
2019-01-09T15:13:00.696Z,28.03
2019-01-09T15:15:29.863Z,21.47
2019-01-09T15:17:59.099Z,21.43
2019-01-09T15:20:28.287Z,25.63
2019-01-09T15:22:57.737Z,25.53
2019-01-09T15:25:26.886Z,29.27
2019-01-09T15:27:56.056Z,21.00
2019-01-09T15:30:30.546Z,23.97
2019-01-09T15:32:59.767Z,18.13
2019-01-09T15:35:29.271Z,22.80
2019-01-09T15:37:58.818Z,21.50
2019-01-09T15:40:29.876Z,24.47
2019-01-09T15:43:00.263Z,26.43
2019-01-09T15:45:29.510Z,27.30
2019-01-09T15:47:58.681Z,19.93
2019-01-09T15:50:28.142Z,16.80
2019-01-09T15:52:57.479Z,27.97
2019-01-09T15:55:26.745Z,24.80
2019-01-09T15:57:56.431Z,16.97
2019-01-09T16:00:28.401Z,25.97
2019-01-09T16:02:58.468Z,23.97
2019-01-09T16:05:27.707Z,24.50
2019-01-09T16:07:56.891Z,17.93
2019-01-09T16:10:26.438Z,18.37
2019-01-09T16:12:55.687Z,26.47
2019-01-09T16:15:25.558Z,23.67
2019-01-09T16:17:55.291Z,25.33
2019-01-09T16:20:24.842Z,25.83
2019-01-09T16:22:54.372Z,25.53
2019-01-09T16:25:23.644Z,27.73
2019-01-09T16:27:52.881Z,29.00
2019-01-09T16:30:40.939Z,23.67
2019-01-09T16:33:10.088Z,26.33
2019-01-09T16:35:39.336Z,24.23
2019-01-09T16:38:08.883Z,28.77
2019-01-09T16:40:38.061Z,24.90
2019-01-09T16:43:07.572Z,18.30
2019-01-09T16:45:36.740Z,23.40
2019-01-09T16:48:06.577Z,28.60
2019-01-09T16:50:35.735Z,24.43
2019-01-09T16:53:04.921Z,28.03
2019-01-09T16:55:34.182Z,22.57
2019-01-09T16:58:03.930Z,21.73
2019-01-09T17:00:33.571Z,23.03
2019-01-09T17:03:03.227Z,31.23
2019-01-09T17:05:32.405Z,22.37
2019-01-09T17:08:02.165Z,33.40
2019-01-09T17:10:32.583Z,31.83
2019-01-09T17:13:02.215Z,23.37
2019-01-09T17:15:31.725Z,25.80
2019-01-09T17:18:02.079Z,20.43
2019-01-09T17:20:31.535Z,20.27
2019-01-09T17:23:00.900Z,16.67
2019-01-09T17:25:30.173Z,17.17
2019-01-09T17:27:59.414Z,19.50
2019-01-09T17:30:29.523Z,24.03
2019-01-09T17:32:58.961Z,22.37
2019-01-09T17:35:28.311Z,20.00
2019-01-09T17:37:57.792Z,22.63
2019-01-09T17:40:27.274Z,17.80
2019-01-09T17:42:56.527Z,19.10
2019-01-09T17:45:26.139Z,26.23
2019-01-09T17:47:55.390Z,17.00
2019-01-09T17:50:30.253Z,21.03
2019-01-09T17:52:59.927Z,15.43
2019-01-09T17:55:29.719Z,17.80
2019-01-09T17:57:59.367Z,25.13
2019-01-09T18:00:37.709Z,29.93
2019-01-09T18:03:06.982Z,25.53
2019-01-09T18:05:36.264Z,26.83
2019-01-09T18:08:10.914Z,26.13
2019-01-09T18:10:37.421Z,29.97
2019-01-09T18:13:07.733Z,25.23
2019-01-09T18:15:37.054Z,18.07
2019-01-09T18:18:06.472Z,14.00
2019-01-09T18:20:35.705Z,14.17
2019-01-09T18:23:05.291Z,17.17
2019-01-09T18:25:34.516Z,15.00
2019-01-09T18:28:04.143Z,18.20
2019-01-09T18:30:43.198Z,15.13
2019-01-09T18:33:26.083Z,10.23
2019-01-09T18:36:10.946Z,15.23
2019-01-09T18:39:00.300Z,19.00
2019-01-09T18:42:00.061Z,13.37
2019-01-09T18:44:44.292Z,25.17
2019-01-09T18:47:54.210Z,26.45
2019-01-09T18:50:46.713Z,25.07
2019-01-09T18:53:46.901Z,27.13
2019-01-09T18:56:16.240Z,23.60
2019-01-09T18:58:45.708Z,22.33
2019-01-09T19:01:15.315Z,27.87
2019-01-09T19:03:44.835Z,17.50
2019-01-09T19:06:14.065Z,23.53
2019-01-09T19:08:43.599Z,25.00
2019-01-09T19:11:13.103Z,27.43
2019-01-09T19:13:42.342Z,27.67
2019-01-09T19:16:11.895Z,27.50
2019-01-09T19:18:41.681Z,27.37
2019-01-09T19:21:10.979Z,28.73
2019-01-09T19:23:40.205Z,36.67
2019-01-09T19:26:10.019Z,42.80
2019-01-09T19:28:39.241Z,37.80
2019-01-09T19:31:08.521Z,35.00
2019-01-09T19:33:37.764Z,42.13
2019-01-09T19:36:07.183Z,41.20
2019-01-09T19:38:36.455Z,33.93
2019-01-09T19:41:06.047Z,29.30
2019-01-09T19:43:35.337Z,33.07
2019-01-09T19:46:05.238Z,29.23
2019-01-09T19:48:34.914Z,30.50
2019-01-09T19:51:04.686Z,27.87
2019-01-09T19:53:33.960Z,22.73
2019-01-09T19:56:03.177Z,21.40
2019-01-09T19:58:32.354Z,21.00
2019-01-09T20:01:01.671Z,21.00
2019-01-09T20:03:31.141Z,27.63
2019-01-09T20:06:00.321Z,25.07
2019-01-09T20:08:29.565Z,23.93
2019-01-09T20:10:59.044Z,30.43
2019-01-09T20:13:28.688Z,23.90
2019-01-09T20:15:58.212Z,26.90
2019-01-09T20:18:27.385Z,18.97
2019-01-09T20:20:56.668Z,25.60
2019-01-09T20:23:26.267Z,19.63
2019-01-09T20:25:55.620Z,19.30
2019-01-09T20:28:25.272Z,19.07
2019-01-09T20:30:55.168Z,20.93
2019-01-09T20:33:24.469Z,19.37
2019-01-09T20:35:53.752Z,26.60
2019-01-09T20:38:22.924Z,17.87
2019-01-09T20:40:52.290Z,15.70
2019-01-09T20:43:21.647Z,17.07
2019-01-09T20:45:51.005Z,25.50
2019-01-09T20:48:20.478Z,16.67
2019-01-09T20:50:50.379Z,20.23
2019-01-09T20:53:19.758Z,24.00
2019-01-09T20:55:49.038Z,16.97
2019-01-09T20:58:18.254Z,21.20
2019-01-09T21:00:48.086Z,16.80
2019-01-09T21:03:17.477Z,18.17
2019-01-09T21:05:49.976Z,20.30
2019-01-09T21:08:19.599Z,16.97
2019-01-09T21:10:49.173Z,20.87
2019-01-09T21:13:18.317Z,34.17
2019-01-09T21:15:47.825Z,24.10
2019-01-09T21:18:17.097Z,33.17
2019-01-09T21:20:47.310Z,32.00
2019-01-09T21:23:16.572Z,28.70
2019-01-09T21:25:46.162Z,22.20
2019-01-09T21:28:15.612Z,26.13
2019-01-09T21:30:44.779Z,30.23
2019-01-09T21:33:13.935Z,29.90
2019-01-09T21:35:43.282Z,21.77
2019-01-09T21:38:12.484Z,22.87
2019-01-09T21:40:41.910Z,26.90
2019-01-09T21:43:11.066Z,25.33
2019-01-09T21:45:40.286Z,35.20
2019-01-09T21:48:09.557Z,26.23
2019-01-09T21:50:39.361Z,30.13
2019-01-09T21:53:08.899Z,33.17
2019-01-09T21:55:38.118Z,29.77
2019-01-09T21:58:07.266Z,24.53
2019-01-09T22:00:36.735Z,32.47
2019-01-09T22:03:06.192Z,28.77
2019-01-09T22:05:35.804Z,28.87
2019-01-09T22:08:05.572Z,27.50
2019-01-09T22:10:36.648Z,24.17
2019-01-09T22:13:07.260Z,26.20
2019-01-09T22:15:36.403Z,22.17
2019-01-09T22:18:05.881Z,18.27
2019-01-09T22:20:35.389Z,26.03
2019-01-09T22:23:04.582Z,15.67
2019-01-09T22:25:33.825Z,20.03
2019-01-09T22:28:03.407Z,21.83
2019-01-09T22:30:32.566Z,22.03
2019-01-09T22:33:01.740Z,21.13
2019-01-09T22:35:30.906Z,23.97
2019-01-09T22:38:00.159Z,26.43
2019-01-09T22:40:29.299Z,24.03
2019-01-09T22:42:58.764Z,18.93
2019-01-09T22:45:27.927Z,16.30
2019-01-09T22:47:57.090Z,17.07
2019-01-09T22:50:26.329Z,16.93
2019-01-09T22:52:55.938Z,14.87
2019-01-09T22:55:25.188Z,18.20
2019-01-09T22:57:54.868Z,11.37
2019-01-09T23:01:26.973Z,15.60
2019-01-09T23:03:56.992Z,15.90
2019-01-09T23:06:26.503Z,27.77
2019-01-09T23:08:56.345Z,18.07
2019-01-09T23:11:25.588Z,21.43
2019-01-09T23:13:55.465Z,17.33
2019-01-09T23:16:24.765Z,20.27
2019-01-09T23:18:54.189Z,15.27
2019-01-09T23:21:25.004Z,18.40
2019-01-09T23:23:54.509Z,24.93
2019-01-09T23:26:23.703Z,24.87
2019-01-09T23:28:53.148Z,23.57
2019-01-09T23:31:22.475Z,17.30
2019-01-09T23:33:51.798Z,22.87
2019-01-09T23:36:21.001Z,24.03
2019-01-09T23:38:50.418Z,23.97
2019-01-09T23:41:20.020Z,29.03
2019-01-09T23:43:49.251Z,25.70
2019-01-09T23:46:18.456Z,22.27
2019-01-09T23:48:48.230Z,29.90
2019-01-09T23:51:17.768Z,26.67
2019-01-09T23:53:47.233Z,30.67
2019-01-09T23:56:16.431Z,27.70
2019-01-09T23:58:45.631Z,27.07
